createdAt,value
2024-04-23T00:00:50.010Z,100829.15
2024-04-23T00:03:16.596Z,100825.63
2024-04-23T00:05:43.157Z,100821.52
2024-04-23T00:08:09.612Z,100821.30
2024-04-23T00:10:36.257Z,100820.54
2024-04-23T00:13:02.739Z,100815.03
2024-04-23T00:15:29.213Z,100811.57
2024-04-23T00:17:55.743Z,100811.34
2024-04-23T00:20:22.394Z,100808.80
2024-04-23T00:22:49.020Z,100804.59
2024-04-23T00:25:15.669Z,100798.80
2024-04-23T00:27:42.137Z,100792.53
2024-04-23T00:30:09.114Z,100784.67
2024-04-23T00:32:35.651Z,100783.74
2024-04-23T00:35:02.864Z,100783.05
2024-04-23T00:37:29.409Z,100787.27
2024-04-23T00:39:56.005Z,100784.56
2024-04-23T00:42:22.727Z,100786.49
2024-04-23T00:44:51.581Z,100791.05
2024-04-23T00:47:18.473Z,100797.60
2024-04-23T00:49:45.133Z,100802.24
2024-04-23T00:52:11.585Z,100809.38
2024-04-23T00:54:38.334Z,100811.70
2024-04-23T00:57:04.752Z,100813.16
2024-04-23T00:59:31.634Z,100817.80
2024-04-23T01:01:59.034Z,100817.95
2024-04-23T01:04:25.778Z,100817.72
2024-04-23T01:06:53.003Z,100817.66
2024-04-23T01:09:20.728Z,100819.20
2024-04-23T01:11:48.995Z,100821.69
2024-04-23T01:14:15.534Z,100821.64
2024-04-23T01:16:45.625Z,100823.60
2024-04-23T01:19:25.131Z,100822.98
2024-04-23T01:22:02.952Z,100822.55
2024-04-23T01:24:35.735Z,100814.89
2024-04-23T01:27:03.653Z,100813.71
2024-04-23T01:29:31.690Z,100808.36
2024-04-23T01:31:59.761Z,100806.30
2024-04-23T01:34:29.532Z,100802.55
2024-04-23T01:36:56.612Z,100799.20
2024-04-23T01:39:24.811Z,100795.52
2024-04-23T01:41:52.072Z,100791.73
2024-04-23T01:44:19.915Z,100792.59
2024-04-23T01:46:47.385Z,100794.27
2024-04-23T01:49:14.145Z,100797.19
2024-04-23T01:51:41.125Z,100794.11
2024-04-23T01:54:07.536Z,100791.84
2024-04-23T01:56:34.035Z,100787.06
2024-04-23T01:59:00.631Z,100785.12
2024-04-23T02:01:29.837Z,100782.15
2024-04-23T02:03:56.558Z,100779.73
2024-04-23T02:06:23.944Z,100781.59
2024-04-23T02:08:52.732Z,100782.18
2024-04-23T02:11:19.376Z,100781.77
2024-04-23T02:13:46.037Z,100784.79
2024-04-23T02:19:13.966Z,100785.73
2024-04-23T02:21:40.424Z,100786.70
2024-04-23T02:24:06.894Z,100791.58
2024-04-23T02:26:33.339Z,100790.60
2024-04-23T02:28:59.878Z,100793.41
2024-04-23T02:31:26.490Z,100797.19
2024-04-23T02:33:52.989Z,100796.55
2024-04-23T02:36:19.441Z,100798.33
2024-04-23T02:38:45.892Z,100798.66
2024-04-23T02:41:12.364Z,100800.64
2024-04-23T02:43:38.895Z,100803.45
2024-04-23T02:46:05.490Z,100802.76
2024-04-23T02:48:31.914Z,100804.60
2024-04-23T02:50:58.411Z,100804.17
2024-04-23T02:53:24.957Z,100805.20
2024-04-23T02:55:51.467Z,100802.86
2024-04-23T02:58:18.040Z,100804.60
2024-04-23T03:00:44.494Z,100803.90
2024-04-23T03:03:11.037Z,100806.38
2024-04-23T03:05:37.572Z,100802.02
2024-04-23T03:08:04.479Z,100806.45
2024-04-23T03:10:30.958Z,100809.58
2024-04-23T03:12:57.993Z,100808.81
2024-04-23T03:15:24.494Z,100809.95
2024-04-23T03:17:51.073Z,100810.66
2024-04-23T03:20:18.382Z,100812.22
2024-04-23T03:22:44.856Z,100810.48
2024-04-23T03:25:11.366Z,100807.40
2024-04-23T03:27:37.946Z,100809.73
2024-04-23T03:30:04.760Z,100810.02
2024-04-23T03:32:31.473Z,100806.55
2024-04-23T03:34:58.209Z,100803.67
2024-04-23T03:37:25.084Z,100804.93
2024-04-23T03:39:51.530Z,100803.79
2024-04-23T03:42:18.018Z,100806.70
2024-04-23T03:44:46.707Z,100808.06
2024-04-23T03:47:14.436Z,100803.20
2024-04-23T03:49:40.967Z,100802.11
2024-04-23T03:52:11.289Z,100806.06
2024-04-23T03:54:38.143Z,100806.55
2024-04-23T03:57:04.634Z,100806.70
2024-04-23T03:59:31.169Z,100802.71
2024-04-23T04:02:16.225Z,100803.09
2024-04-23T04:05:01.652Z,100807.36
2024-04-23T04:07:28.192Z,100806.27
2024-04-23T04:09:55.280Z,100805.95
2024-04-23T04:12:21.731Z,100810.05
2024-04-23T04:14:48.237Z,100812.76
2024-04-23T04:17:14.855Z,100812.38
2024-04-23T04:19:42.109Z,100811.58
2024-04-23T04:22:08.783Z,100806.93
2024-04-23T04:24:35.260Z,100804.11
2024-04-23T04:27:01.758Z,100804.06
2024-04-23T04:29:28.288Z,100805.15
2024-04-23T04:31:54.788Z,100803.85
2024-04-23T04:34:21.921Z,100806.05
2024-04-23T04:36:48.609Z,100809.08
2024-04-23T04:39:15.147Z,100802.63
2024-04-23T04:41:41.596Z,100800.18
2024-04-23T04:44:08.129Z,100801.52
2024-04-23T04:46:34.832Z,100801.04
2024-04-23T04:49:01.429Z,100804.33
2024-04-23T04:51:27.846Z,100798.53
2024-04-23T04:53:54.335Z,100800.83
2024-04-23T04:56:20.914Z,100801.39
2024-04-23T04:58:47.559Z,100800.58
2024-04-23T05:01:14.220Z,100800.63
2024-04-23T05:03:40.787Z,100798.30
2024-04-23T05:06:08.009Z,100799.48
2024-04-23T05:08:34.447Z,100801.63
2024-04-23T05:11:01.153Z,100804.19
2024-04-23T05:13:27.783Z,100801.33
2024-04-23T05:15:54.241Z,100799.92
2024-04-23T05:18:20.769Z,100800.60
2024-04-23T05:20:47.396Z,100797.70
2024-04-23T05:23:13.824Z,100798.31
2024-04-23T05:25:41.544Z,100800.23
2024-04-23T05:28:08.138Z,100797.31
2024-04-23T05:30:53.718Z,100803.50
2024-04-23T05:33:20.288Z,100801.98
2024-04-23T05:35:46.844Z,100802.66
2024-04-23T05:38:16.066Z,100801.54
2024-04-23T05:40:44.038Z,100803.34
2024-04-23T05:43:10.673Z,100803.26
2024-04-23T05:45:37.233Z,100803.18
2024-04-23T05:48:41.704Z,100805.34
2024-04-23T05:52:12.560Z,100807.84
2024-04-23T05:55:39.323Z,100809.31
2024-04-23T05:58:06.620Z,100807.19
2024-04-23T06:00:33.865Z,100807.67
2024-04-23T06:03:01.422Z,100806.29
2024-04-23T06:05:28.608Z,100805.98
2024-04-23T06:07:56.787Z,100808.86
2024-04-23T06:10:23.356Z,100816.24
2024-04-23T06:12:51.241Z,100819.79
2024-04-23T06:15:18.738Z,100821.91
2024-04-23T06:17:47.897Z,100826.11
2024-04-23T06:20:15.733Z,100830.36
2024-04-23T06:22:43.470Z,100828.67
2024-04-23T06:25:11.636Z,100829.98
2024-04-23T06:27:39.668Z,100835.48
2024-04-23T06:30:11.220Z,100835.09
2024-04-23T06:32:40.107Z,100835.13
2024-04-23T06:35:08.559Z,100833.10
2024-04-23T06:37:35.242Z,100833.80
2024-04-23T06:40:05.451Z,100830.52
2024-04-23T06:42:32.187Z,100830.80
2024-04-23T06:44:58.742Z,100825.18
2024-04-23T06:47:26.026Z,100826.67
2024-04-23T06:49:52.756Z,100827.20
2024-04-23T06:52:19.425Z,100829.06
2024-04-23T06:54:46.198Z,100828.33
2024-04-23T06:57:14.132Z,100832.45
2024-04-23T06:59:43.889Z,100829.08
2024-04-23T07:04:38.391Z,100827.95
2024-04-23T07:07:08.020Z,100827.81
2024-04-23T07:09:34.838Z,100826.45
2024-04-23T07:12:01.376Z,100829.11
2024-04-23T07:14:28.041Z,100834.98
2024-04-23T07:16:54.690Z,100838.77
2024-04-23T07:19:21.439Z,100839.08
2024-04-23T07:21:47.922Z,100833.79
2024-04-23T07:24:14.522Z,100835.02
2024-04-23T07:26:42.785Z,100835.01
2024-04-23T07:29:09.529Z,100837.79
2024-04-23T07:31:36.528Z,100835.79
2024-04-23T07:34:03.246Z,100837.77
2024-04-23T07:36:29.865Z,100836.05
2024-04-23T07:38:56.726Z,100833.11
2024-04-23T07:41:23.540Z,100838.95
2024-04-23T07:43:50.323Z,100839.52
2024-04-23T07:46:17.280Z,100834.54
2024-04-23T07:48:43.721Z,100835.71
2024-04-23T07:51:10.360Z,100836.42
2024-04-23T07:53:37.100Z,100835.61
2024-04-23T07:56:04.416Z,100833.44
2024-04-23T07:58:31.102Z,100834.89
2024-04-23T08:00:57.911Z,100830.98
2024-04-23T08:03:24.547Z,100825.77
2024-04-23T08:05:55.506Z,100827.34
2024-04-23T08:08:25.092Z,100827.14
2024-04-23T08:10:51.729Z,100821.26
2024-04-23T08:13:22.023Z,100819.65
2024-04-23T08:15:48.619Z,100817.92
2024-04-23T08:18:15.457Z,100819.86
2024-04-23T08:20:42.910Z,100818.23
2024-04-23T08:23:10.146Z,100817.27
2024-04-23T08:25:37.298Z,100813.15
2024-04-23T08:28:04.048Z,100808.65
2024-04-23T08:30:30.705Z,100804.19
2024-04-23T08:32:57.446Z,100798.08
2024-04-23T08:35:24.240Z,100793.40
2024-04-23T08:37:50.930Z,100792.95
2024-04-23T08:40:17.651Z,100798.82
2024-04-23T08:42:47.166Z,100795.34
2024-04-23T08:45:15.494Z,100794.16
2024-04-23T08:47:42.953Z,100790.23
2024-04-23T08:50:10.746Z,100785.63
2024-04-23T08:52:38.874Z,100783.30
2024-04-23T08:55:06.552Z,100782.23
2024-04-23T08:57:34.280Z,100784.20
2024-04-23T09:00:03.669Z,100786.40
2024-04-23T09:02:37.573Z,100788.16
2024-04-23T09:05:06.376Z,100792.27
2024-04-23T09:07:34.862Z,100791.31
2024-04-23T09:10:06.203Z,100792.64
2024-04-23T09:12:33.829Z,100794.27
2024-04-23T09:15:01.168Z,100793.09
2024-04-23T09:17:32.944Z,100786.70
2024-04-23T09:20:01.070Z,100789.05
2024-04-23T09:22:28.130Z,100782.77
2024-04-23T09:25:03.092Z,100782.15
2024-04-23T09:27:32.916Z,100780.13
2024-04-23T09:29:59.472Z,100776.78
2024-04-23T09:32:26.337Z,100773.36
2024-04-23T09:34:55.225Z,100773.66
2024-04-23T09:37:21.956Z,100774.96
2024-04-23T09:39:48.462Z,100771.16
2024-04-23T09:42:23.155Z,100772.83
2024-04-23T09:44:51.581Z,100770.55
2024-04-23T09:47:18.223Z,100765.98
2024-04-23T09:49:54.941Z,100758.35
2024-04-23T09:52:36.219Z,100760.55
2024-04-23T09:55:06.244Z,100760.61
2024-04-23T09:57:35.220Z,100761.42
2024-04-23T10:00:03.958Z,100759.67
2024-04-23T10:02:31.391Z,100757.70
2024-04-23T10:05:06.505Z,100752.15
2024-04-23T10:07:41.838Z,100749.23
2024-04-23T10:10:09.783Z,100746.02
2024-04-23T10:12:42.548Z,100745.20
2024-04-23T10:15:19.977Z,100742.27
2024-04-23T10:17:51.611Z,100739.98
2024-04-23T10:20:23.763Z,100734.73
2024-04-23T10:22:55.156Z,100731.55
2024-04-23T10:25:22.170Z,100729.73
2024-04-23T10:27:50.922Z,100729.36
2024-04-23T10:30:18.285Z,100725.45
2024-04-23T10:32:45.993Z,100723.41
2024-04-23T10:35:17.468Z,100719.16
2024-04-23T10:37:45.485Z,100718.98
2024-04-23T10:40:14.894Z,100719.02
2024-04-23T10:42:41.468Z,100719.27
2024-04-23T10:45:08.772Z,100718.70
2024-04-23T10:47:35.427Z,100718.02
2024-04-23T10:50:09.058Z,100708.05
2024-04-23T10:52:36.390Z,100701.70
2024-04-23T10:55:08.877Z,100695.72
2024-04-23T10:57:36.811Z,100692.91
2024-04-23T11:00:04.989Z,100692.40
2024-04-23T11:02:38.205Z,100690.69
2024-04-23T11:05:08.504Z,100690.98
2024-04-23T11:07:37.740Z,100692.60
2024-04-23T11:10:07.101Z,100686.57
2024-04-23T11:12:37.325Z,100679.69
2024-04-23T11:15:14.439Z,100675.50
2024-04-23T11:17:42.100Z,100672.70
2024-04-23T11:20:09.755Z,100673.20
2024-04-23T11:22:54.274Z,100667.46
2024-04-23T11:25:34.254Z,100662.75
2024-04-23T11:28:02.281Z,100662.48
2024-04-23T11:30:28.972Z,100658.88
2024-04-23T11:33:00.788Z,100656.34
2024-04-23T11:35:28.382Z,100653.40
2024-04-23T11:37:57.322Z,100653.88
2024-04-23T11:40:23.921Z,100652.77
2024-04-23T11:42:50.531Z,100649.52
2024-04-23T11:45:16.980Z,100645.87
2024-04-23T11:47:44.718Z,100641.30
2024-04-23T11:50:14.648Z,100635.98
2024-04-23T11:52:42.317Z,100630.25
2024-04-23T11:55:10.238Z,100625.35
2024-04-23T11:57:39.904Z,100622.58
2024-04-23T12:00:07.383Z,100620.50
2024-04-23T12:02:34.082Z,100619.50
2024-04-23T12:05:05.766Z,100614.80
2024-04-23T12:07:35.146Z,100608.05
2024-04-23T12:10:04.914Z,100596.34
2024-04-23T12:12:37.027Z,100590.45
2024-04-23T12:15:05.748Z,100585.20
2024-04-23T12:17:34.438Z,100582.13
2024-04-23T12:20:01.101Z,100580.42
2024-04-23T12:22:27.834Z,100574.53
2024-04-23T12:24:55.060Z,100569.47
2024-04-23T12:27:24.839Z,100566.75
2024-04-23T12:29:52.678Z,100561.19
2024-04-23T12:32:24.585Z,100561.96
2024-04-23T12:34:57.398Z,100560.84
2024-04-23T12:37:24.315Z,100551.34
2024-04-23T12:39:54.079Z,100542.55
2024-04-23T12:42:25.869Z,100539.90
2024-04-23T12:44:52.509Z,100540.70
2024-04-23T12:47:19.452Z,100541.34
2024-04-23T12:49:46.300Z,100533.60
2024-04-23T12:52:12.960Z,100526.02
2024-04-23T12:54:40.312Z,100520.02
2024-04-23T12:57:10.511Z,100523.98
2024-04-23T12:59:38.879Z,100522.46
2024-04-23T13:02:08.685Z,100517.39
2024-04-23T13:04:35.668Z,100511.33
2024-04-23T13:07:02.187Z,100505.11
2024-04-23T13:09:28.813Z,100505.80
2024-04-23T13:11:57.480Z,100503.73
2024-04-23T13:14:24.180Z,100502.59
2024-04-23T13:16:52.068Z,100500.10
2024-04-23T13:19:24.585Z,100491.20
2024-04-23T13:21:51.288Z,100489.14
2024-04-23T13:24:17.693Z,100485.29
2024-04-23T13:26:44.403Z,100482.32
2024-04-23T13:29:13.971Z,100472.55
2024-04-23T13:31:40.680Z,100469.47
2024-04-23T13:34:10.872Z,100467.77
2024-04-23T13:36:37.443Z,100467.27
2024-04-23T13:39:04.000Z,100469.60
2024-04-23T13:41:30.557Z,100465.73
2024-04-23T13:43:57.275Z,100467.20
2024-04-23T13:46:23.770Z,100462.77
2024-04-23T13:48:50.426Z,100453.36
2024-04-23T13:51:17.067Z,100449.50
2024-04-23T13:53:46.121Z,100444.08
2024-04-23T13:56:12.930Z,100443.40
2024-04-23T13:58:40.027Z,100441.83
2024-04-23T14:01:10.448Z,100440.43
2024-04-23T14:03:38.066Z,100436.88
2024-04-23T14:06:05.980Z,100429.31
2024-04-23T14:08:36.366Z,100429.57
2024-04-23T14:11:04.955Z,100426.39
2024-04-23T14:13:36.410Z,100421.94
2024-04-23T14:16:11.275Z,100412.01
2024-04-23T14:18:38.505Z,100406.93
2024-04-23T14:21:05.529Z,100403.70
2024-04-23T14:23:35.639Z,100400.19
2024-04-23T14:26:03.115Z,100394.91
2024-04-23T14:28:32.816Z,100389.13
2024-04-23T14:31:05.451Z,100390.31
2024-04-23T14:33:32.809Z,100390.05
2024-04-23T14:36:04.393Z,100388.08
2024-04-23T14:38:32.208Z,100386.59
2024-04-23T14:41:03.194Z,100385.34
2024-04-23T14:43:30.168Z,100384.17
2024-04-23T14:45:57.271Z,100377.30
2024-04-23T14:48:24.565Z,100371.05
2024-04-23T14:50:51.847Z,100363.56
2024-04-23T14:53:21.653Z,100365.09
2024-04-23T14:56:01.083Z,100365.73
2024-04-23T14:58:28.412Z,100356.80
2024-04-23T15:00:55.295Z,100356.06
2024-04-23T15:03:22.228Z,100355.48
2024-04-23T15:05:49.170Z,100353.09
2024-04-23T15:08:16.156Z,100351.55
2024-04-23T15:10:49.706Z,100355.02
2024-04-23T15:13:22.288Z,100356.89
2024-04-23T15:15:58.435Z,100355.40
2024-04-23T15:18:25.102Z,100347.85
2024-04-23T15:20:51.662Z,100344.55
2024-04-23T15:23:18.256Z,100345.62
2024-04-23T15:25:44.912Z,100344.11
2024-04-23T15:28:11.509Z,100334.27
2024-04-23T15:30:37.970Z,100328.77
2024-04-23T15:33:05.155Z,100320.77
2024-04-23T15:35:32.566Z,100323.63
2024-04-23T15:37:59.177Z,100323.55
2024-04-23T15:40:25.755Z,100322.30
2024-04-23T15:42:52.211Z,100323.40
2024-04-23T15:45:18.787Z,100324.94
2024-04-23T15:47:45.453Z,100328.57
2024-04-23T15:50:15.437Z,100325.93
2024-04-23T15:52:44.847Z,100324.70
2024-04-23T15:55:12.620Z,100327.39
2024-04-23T15:57:39.177Z,100327.77
2024-04-23T16:00:07.112Z,100324.00
2024-04-23T16:02:34.299Z,100322.80
2024-04-23T16:05:02.100Z,100319.30
2024-04-23T16:07:31.820Z,100316.48
2024-04-23T16:09:58.468Z,100316.37
2024-04-23T16:12:24.995Z,100315.55
2024-04-23T16:14:51.580Z,100314.84
2024-04-23T16:17:18.239Z,100316.29
2024-04-23T16:19:44.955Z,100312.75
2024-04-23T16:22:11.572Z,100311.17
2024-04-23T16:24:38.135Z,100309.78
2024-04-23T16:27:05.385Z,100305.65
2024-04-23T16:29:31.905Z,100303.92
2024-04-23T16:31:58.603Z,100297.19
2024-04-23T16:34:25.139Z,100296.05
2024-04-23T16:36:52.109Z,100293.50
2024-04-23T16:39:19.926Z,100292.95
2024-04-23T16:41:49.700Z,100299.05
2024-04-23T16:44:16.256Z,100297.88
2024-04-23T16:46:43.044Z,100293.52
2024-04-23T16:49:09.623Z,100293.19
2024-04-23T16:51:36.169Z,100289.35
2024-04-23T16:54:03.802Z,100285.52
2024-04-23T16:56:30.673Z,100281.21
2024-04-23T16:58:57.105Z,100275.96
2024-04-23T17:01:23.804Z,100273.61
2024-04-23T17:03:50.440Z,100271.02
2024-04-23T17:06:17.031Z,100263.51
2024-04-23T17:08:43.786Z,100260.60
2024-04-23T17:11:10.360Z,100258.36
2024-04-23T17:13:37.042Z,100259.21
2024-04-23T17:16:16.955Z,100256.73
2024-04-23T17:18:43.568Z,100256.82
2024-04-23T17:21:14.216Z,100254.21
2024-04-23T17:23:40.808Z,100248.95
2024-04-23T17:26:07.411Z,100243.56
2024-04-23T17:28:34.046Z,100245.63
2024-04-23T17:31:01.319Z,100240.85
2024-04-23T17:33:27.904Z,100238.84
2024-04-23T17:35:58.001Z,100237.21
2024-04-23T17:38:27.723Z,100234.20
2024-04-23T17:40:54.499Z,100234.50
2024-04-23T17:43:21.739Z,100234.84
2024-04-23T17:45:51.489Z,100234.85
2024-04-23T17:48:18.220Z,100231.70
2024-04-23T17:50:44.941Z,100233.35
2024-04-23T17:53:11.603Z,100228.95
2024-04-23T17:55:39.209Z,100229.05
2024-04-23T17:58:05.858Z,100228.02
2024-04-23T18:00:32.477Z,100228.90
2024-04-23T18:03:02.002Z,100224.23
2024-04-23T18:05:28.600Z,100220.95
2024-04-23T18:07:55.110Z,100218.21
2024-04-23T18:10:21.704Z,100217.73
2024-04-23T18:12:48.203Z,100213.65
2024-04-23T18:15:14.842Z,100214.54
2024-04-23T18:17:41.354Z,100213.34
2024-04-23T18:20:08.288Z,100213.13
2024-04-23T18:22:36.913Z,100211.42
2024-04-23T18:25:04.300Z,100211.30
2024-04-23T18:27:31.109Z,100207.34
2024-04-23T18:29:57.558Z,100207.36
2024-04-23T18:32:24.997Z,100206.35
2024-04-23T18:34:51.622Z,100207.95
2024-04-23T18:37:18.066Z,100205.17
2024-04-23T18:39:44.646Z,100204.86
2024-04-23T18:42:13.159Z,100201.43
2024-04-23T18:44:39.712Z,100196.02
2024-04-23T18:47:06.886Z,100193.99
2024-04-23T18:49:33.427Z,100192.29
2024-04-23T18:52:00.155Z,100192.19
2024-04-23T18:54:26.668Z,100196.64
2024-04-23T18:56:54.618Z,100193.96
2024-04-23T18:59:21.414Z,100190.77
2024-04-23T19:01:48.073Z,100191.34
2024-04-23T19:04:14.698Z,100189.09
2024-04-23T19:06:41.498Z,100191.61
2024-04-23T19:09:08.100Z,100190.03
2024-04-23T19:11:34.839Z,100188.72
2024-04-23T19:14:11.101Z,100184.64
2024-04-23T19:16:43.684Z,100175.79
2024-04-23T19:19:10.368Z,100172.22
2024-04-23T19:21:37.242Z,100168.89
2024-04-23T19:24:03.993Z,100167.46
2024-04-23T19:26:30.479Z,100169.08
2024-04-23T19:28:57.001Z,100169.40
2024-04-23T19:31:23.626Z,100167.20
2024-04-23T19:33:50.486Z,100165.71
2024-04-23T19:36:17.063Z,100163.99
2024-04-23T19:38:44.803Z,100165.23
2024-04-23T19:41:13.298Z,100163.30
2024-04-23T19:43:51.547Z,100161.67
2024-04-23T19:46:21.189Z,100159.83
2024-04-23T19:48:48.743Z,100159.00
2024-04-23T19:51:20.762Z,100156.22
2024-04-23T19:53:50.718Z,100150.23
2024-04-23T19:56:34.685Z,100145.52
2024-04-23T19:59:02.803Z,100144.23
2024-04-23T20:01:33.294Z,100145.95
2024-04-23T20:03:59.907Z,100146.67
2024-04-23T20:06:26.498Z,100137.52
2024-04-23T20:08:53.034Z,100136.63
2024-04-23T20:11:19.760Z,100136.55
2024-04-23T20:13:46.415Z,100133.90
2024-04-23T20:16:12.963Z,100132.55
2024-04-23T20:18:39.657Z,100134.02
2024-04-23T20:21:13.698Z,100134.45
2024-04-23T20:23:41.054Z,100130.73
2024-04-23T20:26:07.727Z,100129.22
2024-04-23T20:28:34.247Z,100128.36
2024-04-23T20:31:02.047Z,100126.98
2024-04-23T20:33:28.536Z,100126.52
2024-04-23T20:36:02.477Z,100127.75
2024-04-23T20:38:29.065Z,100125.27
2024-04-23T20:40:55.599Z,100123.56
2024-04-23T20:43:22.335Z,100123.91
2024-04-23T20:45:49.022Z,100121.46
2024-04-23T20:48:18.597Z,100117.74
2024-04-23T20:50:50.333Z,100112.46
2024-04-23T20:53:16.992Z,100106.23
2024-04-23T20:55:43.642Z,100100.38
2024-04-23T20:58:10.149Z,100100.08
2024-04-23T21:00:36.716Z,100100.27
2024-04-23T21:03:04.105Z,100095.86
2024-04-23T21:05:30.987Z,100101.33
2024-04-23T21:07:57.598Z,100101.94
2024-04-23T21:10:24.211Z,100096.16
2024-04-23T21:12:50.682Z,100088.73
2024-04-23T21:15:17.146Z,100087.16
2024-04-23T21:17:43.868Z,100081.91
2024-04-23T21:20:10.557Z,100078.71
2024-04-23T21:22:37.168Z,100077.25
2024-04-23T21:25:03.931Z,100075.92
2024-04-23T21:27:30.438Z,100073.95
2024-04-23T21:29:56.919Z,100073.29
2024-04-23T21:32:24.545Z,100070.80
2024-04-23T21:34:51.255Z,100068.42
2024-04-23T21:37:17.710Z,100064.14
2024-04-23T21:39:44.110Z,100058.29
2024-04-23T21:42:12.603Z,100050.73
2024-04-23T21:44:40.710Z,100048.58
2024-04-23T21:47:07.410Z,100049.30
2024-04-23T21:49:33.859Z,100047.71
2024-04-23T21:52:16.485Z,100044.98
2024-04-23T21:54:47.235Z,100044.96
2024-04-23T21:57:14.172Z,100042.27
2024-04-23T21:59:41.081Z,100037.53
2024-04-23T22:02:07.662Z,100039.42
2024-04-23T22:04:34.315Z,100036.42
2024-04-23T22:07:00.850Z,100038.95
2024-04-23T22:09:27.337Z,100036.85
2024-04-23T22:11:53.970Z,100029.38
2024-04-23T22:14:20.609Z,100021.73
2024-04-23T22:16:48.079Z,100018.11
2024-04-23T22:19:14.906Z,100017.83
2024-04-23T22:21:41.415Z,100017.09
2024-04-23T22:24:08.231Z,100016.79
2024-04-23T22:26:34.759Z,100016.95
2024-04-23T22:29:01.314Z,100016.63
2024-04-23T22:31:27.878Z,100014.05
2024-04-23T22:33:54.423Z,100010.95
2024-04-23T22:36:21.071Z,100008.73
2024-04-23T22:38:47.559Z,100007.86
2024-04-23T22:41:14.179Z,100007.07
2024-04-23T22:43:40.674Z,100003.90
2024-04-23T22:46:07.139Z,99998.65
2024-04-23T22:48:34.316Z,99996.02
2024-04-23T22:51:01.168Z,99995.67
2024-04-23T22:53:27.644Z,99993.30
2024-04-23T22:55:54.214Z,99991.19
2024-04-23T22:58:22.449Z,99984.58
2024-04-23T23:00:49.040Z,99984.68
2024-04-23T23:03:15.721Z,99980.45
2024-04-23T23:05:42.494Z,99978.75
2024-04-23T23:08:08.959Z,99969.02
2024-04-23T23:10:35.858Z,99966.04
2024-04-23T23:13:02.382Z,99962.86
2024-04-23T23:15:28.800Z,99956.66
2024-04-23T23:17:55.263Z,99954.05
2024-04-23T23:20:21.932Z,99949.98
2024-04-23T23:22:50.163Z,99941.13
2024-04-23T23:25:16.800Z,99933.55
2024-04-23T23:27:43.253Z,99931.47
2024-04-23T23:30:10.057Z,99924.91
2024-04-23T23:32:36.733Z,99916.66
2024-04-23T23:35:03.427Z,99912.06
2024-04-23T23:37:29.940Z,99901.17
2024-04-23T23:42:40.649Z,99894.95
2024-04-23T23:45:10.319Z,99893.85
2024-04-23T23:47:37.347Z,99886.94
2024-04-23T23:50:04.848Z,99886.30
2024-04-23T23:52:31.441Z,99884.28
2024-04-23T23:54:57.999Z,99883.85
2024-04-23T23:57:24.435Z,99878.46
2024-04-23T23:59:51.185Z,99873.66
